sensor_id;sensor_type;location;lat;lon;timestamp;P1;durP1;ratioP1;P2;durP2;ratioP2
13108;SDS011;6620;53.734;11.510;2023-05-10T00:00:44;70.25;;;66.43;;
13108;SDS011;6620;53.734;11.510;2023-05-10T00:03:09;62.23;;;58.47;;
13108;SDS011;6620;53.734;11.510;2023-05-10T00:05:34;57.17;;;54.10;;
13108;SDS011;6620;53.734;11.510;2023-05-10T00:08:00;46.07;;;43.63;;
13108;SDS011;6620;53.734;11.510;2023-05-10T00:10:25;51.20;;;48.17;;
13108;SDS011;6620;53.734;11.510;2023-05-10T00:12:50;51.33;;;48.15;;
13108;SDS011;6620;53.734;11.510;2023-05-10T00:15:15;66.17;;;62.40;;
13108;SDS011;6620;53.734;11.510;2023-05-10T00:17:40;65.40;;;61.17;;
13108;SDS011;6620;53.734;11.510;2023-05-10T00:20:06;63.50;;;59.87;;
13108;SDS011;6620;53.734;11.510;2023-05-10T00:22:31;62.88;;;59.05;;
13108;SDS011;6620;53.734;11.510;2023-05-10T00:24:56;63.53;;;59.83;;
13108;SDS011;6620;53.734;11.510;2023-05-10T00:27:22;68.45;;;64.63;;
13108;SDS011;6620;53.734;11.510;2023-05-10T00:29:47;58.80;;;55.50;;
13108;SDS011;6620;53.734;11.510;2023-05-10T00:32:12;62.33;;;58.90;;
13108;SDS011;6620;53.734;11.510;2023-05-10T00:34:38;65.28;;;61.60;;
13108;SDS011;6620;53.734;11.510;2023-05-10T00:37:03;67.30;;;63.50;;
13108;SDS011;6620;53.734;11.510;2023-05-10T00:39:29;54.37;;;51.27;;
13108;SDS011;6620;53.734;11.510;2023-05-10T00:41:54;65.70;;;62.22;;
13108;SDS011;6620;53.734;11.510;2023-05-10T00:44:19;63.67;;;59.87;;
13108;SDS011;6620;53.734;11.510;2023-05-10T00:46:44;62.43;;;59.03;;
13108;SDS011;6620;53.734;11.510;2023-05-10T00:49:10;65.45;;;61.08;;
13108;SDS011;6620;53.734;11.510;2023-05-10T00:51:35;68.60;;;64.53;;
13108;SDS011;6620;53.734;11.510;2023-05-10T00:54:01;80.20;;;75.70;;
13108;SDS011;6620;53.734;11.510;2023-05-10T00:56:27;60.30;;;56.78;;
13108;SDS011;6620;53.734;11.510;2023-05-10T00:58:54;61.58;;;58.15;;
13108;SDS011;6620;53.734;11.510;2023-05-10T01:01:19;67.63;;;62.83;;
13108;SDS011;6620;53.734;11.510;2023-05-10T01:03:44;63.63;;;59.97;;
13108;SDS011;6620;53.734;11.510;2023-05-10T01:06:10;138.52;;;130.82;;
13108;SDS011;6620;53.734;11.510;2023-05-10T01:08:36;81.68;;;77.20;;
13108;SDS011;6620;53.734;11.510;2023-05-10T01:11:01;77.63;;;73.47;;
13108;SDS011;6620;53.734;11.510;2023-05-10T01:15:55;69.07;;;65.32;;
13108;SDS011;6620;53.734;11.510;2023-05-10T01:18:21;70.03;;;66.28;;
13108;SDS011;6620;53.734;11.510;2023-05-10T01:20:47;72.63;;;68.15;;
13108;SDS011;6620;53.734;11.510;2023-05-10T01:23:22;65.45;;;61.95;;
13108;SDS011;6620;53.734;11.510;2023-05-10T01:26:14;77.72;;;73.55;;
13108;SDS011;6620;53.734;11.510;2023-05-10T01:31:33;50.90;;;47.92;;
13108;SDS011;6620;53.734;11.510;2023-05-10T01:34:07;64.75;;;61.08;;
13108;SDS011;6620;53.734;11.510;2023-05-10T01:36:55;75.85;;;71.43;;
13108;SDS011;6620;53.734;11.510;2023-05-10T01:39:25;62.28;;;58.65;;
13108;SDS011;6620;53.734;11.510;2023-05-10T01:41:55;81.88;;;77.25;;
13108;SDS011;6620;53.734;11.510;2023-05-10T01:44:42;69.22;;;65.50;;
13108;SDS011;6620;53.734;11.510;2023-05-10T01:47:12;66.82;;;63.05;;
13108;SDS011;6620;53.734;11.510;2023-05-10T01:49:43;64.88;;;61.20;;
13108;SDS011;6620;53.734;11.510;2023-05-10T01:54:37;40.45;;;38.13;;
13108;SDS011;6620;53.734;11.510;2023-05-10T01:57:05;57.50;;;54.38;;
13108;SDS011;6620;53.734;11.510;2023-05-10T01:59:31;68.63;;;64.88;;
13108;SDS011;6620;53.734;11.510;2023-05-10T02:02:01;74.47;;;70.18;;
13108;SDS011;6620;53.734;11.510;2023-05-10T02:04:27;73.22;;;69.13;;
13108;SDS011;6620;53.734;11.510;2023-05-10T02:06:52;76.82;;;72.57;;
13108;SDS011;6620;53.734;11.510;2023-05-10T02:09:18;104.20;;;98.43;;
13108;SDS011;6620;53.734;11.510;2023-05-10T02:11:45;69.45;;;65.38;;
13108;SDS011;6620;53.734;11.510;2023-05-10T02:14:10;67.65;;;63.97;;
13108;SDS011;6620;53.734;11.510;2023-05-10T02:16:36;66.57;;;62.67;;
13108;SDS011;6620;53.734;11.510;2023-05-10T02:19:02;82.70;;;78.10;;
13108;SDS011;6620;53.734;11.510;2023-05-10T02:21:28;80.78;;;76.28;;
13108;SDS011;6620;53.734;11.510;2023-05-10T02:23:54;58.15;;;54.50;;
13108;SDS011;6620;53.734;11.510;2023-05-10T02:26:20;79.13;;;74.65;;
13108;SDS011;6620;53.734;11.510;2023-05-10T02:28:47;71.47;;;67.65;;
13108;SDS011;6620;53.734;11.510;2023-05-10T02:31:12;68.88;;;64.97;;
13108;SDS011;6620;53.734;11.510;2023-05-10T02:33:38;72.63;;;68.45;;
13108;SDS011;6620;53.734;11.510;2023-05-10T02:36:05;71.20;;;67.18;;
13108;SDS011;6620;53.734;11.510;2023-05-10T02:38:31;64.95;;;61.25;;
13108;SDS011;6620;53.734;11.510;2023-05-10T02:40:57;67.97;;;63.88;;
13108;SDS011;6620;53.734;11.510;2023-05-10T02:43:23;63.58;;;59.83;;
13108;SDS011;6620;53.734;11.510;2023-05-10T02:45:49;64.65;;;60.95;;
13108;SDS011;6620;53.734;11.510;2023-05-10T02:48:15;136.60;;;129.02;;
13108;SDS011;6620;53.734;11.510;2023-05-10T02:50:41;65.95;;;61.70;;
13108;SDS011;6620;53.734;11.510;2023-05-10T02:53:11;79.57;;;75.13;;
13108;SDS011;6620;53.734;11.510;2023-05-10T02:55:38;54.30;;;51.00;;
13108;SDS011;6620;53.734;11.510;2023-05-10T02:58:05;65.88;;;62.33;;
13108;SDS011;6620;53.734;11.510;2023-05-10T03:00:30;72.55;;;68.65;;
13108;SDS011;6620;53.734;11.510;2023-05-10T03:02:55;65.63;;;61.90;;
13108;SDS011;6620;53.734;11.510;2023-05-10T03:05:21;70.53;;;66.32;;
13108;SDS011;6620;53.734;11.510;2023-05-10T03:07:46;82.80;;;78.35;;
13108;SDS011;6620;53.734;11.510;2023-05-10T03:10:11;108.78;;;102.75;;
13108;SDS011;6620;53.734;11.510;2023-05-10T03:20:24;59.35;;;55.45;;
13108;SDS011;6620;53.734;11.510;2023-05-10T03:22:51;76.85;;;72.60;;
13108;SDS011;6620;53.734;11.510;2023-05-10T03:25:18;63.75;;;60.25;;
13108;SDS011;6620;53.734;11.510;2023-05-10T03:27:44;65.22;;;61.25;;
13108;SDS011;6620;53.734;11.510;2023-05-10T03:30:10;78.35;;;73.97;;
13108;SDS011;6620;53.734;11.510;2023-05-10T03:32:36;42.03;;;39.58;;
13108;SDS011;6620;53.734;11.510;2023-05-10T03:35:11;64.35;;;60.70;;
13108;SDS011;6620;53.734;11.510;2023-05-10T03:37:38;59.15;;;55.88;;
13108;SDS011;6620;53.734;11.510;2023-05-10T03:40:03;109.43;;;102.63;;
13108;SDS011;6620;53.734;11.510;2023-05-10T03:42:28;77.88;;;73.63;;
13108;SDS011;6620;53.734;11.510;2023-05-10T03:44:53;73.47;;;69.07;;
13108;SDS011;6620;53.734;11.510;2023-05-10T03:47:19;121.47;;;114.32;;
13108;SDS011;6620;53.734;11.510;2023-05-10T03:49:44;81.35;;;76.75;;
13108;SDS011;6620;53.734;11.510;2023-05-10T03:52:10;67.85;;;63.83;;
13108;SDS011;6620;53.734;11.510;2023-05-10T03:54:35;74.97;;;70.93;;
13108;SDS011;6620;53.734;11.510;2023-05-10T03:57:00;59.93;;;56.33;;
13108;SDS011;6620;53.734;11.510;2023-05-10T03:59:25;107.50;;;101.68;;
13108;SDS011;6620;53.734;11.510;2023-05-10T04:01:51;51.72;;;48.75;;
13108;SDS011;6620;53.734;11.510;2023-05-10T04:04:16;74.80;;;70.82;;
13108;SDS011;6620;53.734;11.510;2023-05-10T04:06:43;96.75;;;91.50;;
13108;SDS011;6620;53.734;11.510;2023-05-10T04:09:08;49.38;;;46.72;;
13108;SDS011;6620;53.734;11.510;2023-05-10T04:11:34;52.42;;;49.50;;
13108;SDS011;6620;53.734;11.510;2023-05-10T04:13:59;93.60;;;88.40;;
13108;SDS011;6620;53.734;11.510;2023-05-10T04:16:24;84.75;;;79.68;;
13108;SDS011;6620;53.734;11.510;2023-05-10T04:18:49;56.42;;;52.97;;
13108;SDS011;6620;53.734;11.510;2023-05-10T04:21:15;65.68;;;62.13;;
13108;SDS011;6620;53.734;11.510;2023-05-10T04:23:40;59.63;;;56.43;;
13108;SDS011;6620;53.734;11.510;2023-05-10T04:26:05;72.05;;;67.85;;
13108;SDS011;6620;53.734;11.510;2023-05-10T04:28:31;61.50;;;58.05;;
13108;SDS011;6620;53.734;11.510;2023-05-10T04:31:03;69.57;;;65.77;;
13108;SDS011;6620;53.734;11.510;2023-05-10T04:33:28;59.00;;;55.45;;
13108;SDS011;6620;53.734;11.510;2023-05-10T04:35:54;79.55;;;75.07;;
13108;SDS011;6620;53.734;11.510;2023-05-10T04:38:19;97.38;;;91.78;;
13108;SDS011;6620;53.734;11.510;2023-05-10T04:40:44;64.53;;;61.00;;
13108;SDS011;6620;53.734;11.510;2023-05-10T04:43:09;78.07;;;73.50;;
13108;SDS011;6620;53.734;11.510;2023-05-10T04:45:34;71.13;;;66.83;;
13108;SDS011;6620;53.734;11.510;2023-05-10T04:48:00;59.63;;;56.23;;
13108;SDS011;6620;53.734;11.510;2023-05-10T04:50:25;83.93;;;79.23;;
13108;SDS011;6620;53.734;11.510;2023-05-10T04:52:50;80.03;;;75.40;;
13108;SDS011;6620;53.734;11.510;2023-05-10T04:55:15;67.82;;;64.20;;
13108;SDS011;6620;53.734;11.510;2023-05-10T04:57:41;75.13;;;71.10;;
13108;SDS011;6620;53.734;11.510;2023-05-10T05:00:06;76.85;;;72.15;;
13108;SDS011;6620;53.734;11.510;2023-05-10T05:02:31;82.78;;;78.25;;
13108;SDS011;6620;53.734;11.510;2023-05-10T05:04:56;71.07;;;67.07;;
13108;SDS011;6620;53.734;11.510;2023-05-10T05:07:22;68.13;;;64.30;;
13108;SDS011;6620;53.734;11.510;2023-05-10T05:09:48;102.97;;;96.93;;
13108;SDS011;6620;53.734;11.510;2023-05-10T05:12:13;80.73;;;76.33;;
13108;SDS011;6620;53.734;11.510;2023-05-10T05:14:39;79.22;;;74.93;;
13108;SDS011;6620;53.734;11.510;2023-05-10T05:17:04;83.15;;;78.47;;
13108;SDS011;6620;53.734;11.510;2023-05-10T05:19:31;83.53;;;78.68;;
13108;SDS011;6620;53.734;11.510;2023-05-10T05:21:56;74.50;;;70.20;;
13108;SDS011;6620;53.734;11.510;2023-05-10T05:24:21;83.07;;;78.63;;
13108;SDS011;6620;53.734;11.510;2023-05-10T05:26:46;83.47;;;78.93;;
13108;SDS011;6620;53.734;11.510;2023-05-10T05:29:12;65.57;;;61.72;;
13108;SDS011;6620;53.734;11.510;2023-05-10T05:31:37;68.83;;;64.93;;
13108;SDS011;6620;53.734;11.510;2023-05-10T05:34:02;64.37;;;60.73;;
13108;SDS011;6620;53.734;11.510;2023-05-10T05:36:27;113.40;;;107.03;;
13108;SDS011;6620;53.734;11.510;2023-05-10T05:38:52;68.30;;;64.43;;
13108;SDS011;6620;53.734;11.510;2023-05-10T05:41:17;70.90;;;66.83;;
13108;SDS011;6620;53.734;11.510;2023-05-10T05:43:43;120.30;;;113.20;;
13108;SDS011;6620;53.734;11.510;2023-05-10T05:46:08;74.60;;;70.50;;
13108;SDS011;6620;53.734;11.510;2023-05-10T05:48:33;73.32;;;69.05;;
13108;SDS011;6620;53.734;11.510;2023-05-10T05:50:58;75.30;;;70.90;;
13108;SDS011;6620;53.734;11.510;2023-05-10T05:53:24;134.93;;;127.65;;
13108;SDS011;6620;53.734;11.510;2023-05-10T05:55:53;81.57;;;77.03;;
13108;SDS011;6620;53.734;11.510;2023-05-10T05:58:19;116.63;;;110.38;;
13108;SDS011;6620;53.734;11.510;2023-05-10T06:00:44;99.53;;;94.03;;
13108;SDS011;6620;53.734;11.510;2023-05-10T06:03:09;63.22;;;59.30;;
13108;SDS011;6620;53.734;11.510;2023-05-10T06:05:35;96.57;;;90.97;;
13108;SDS011;6620;53.734;11.510;2023-05-10T06:08:00;85.97;;;81.30;;
13108;SDS011;6620;53.734;11.510;2023-05-10T06:10:26;86.40;;;81.75;;
13108;SDS011;6620;53.734;11.510;2023-05-10T06:12:51;86.50;;;81.80;;
13108;SDS011;6620;53.734;11.510;2023-05-10T06:15:17;105.95;;;100.15;;
13108;SDS011;6620;53.734;11.510;2023-05-10T06:17:42;115.33;;;108.83;;
13108;SDS011;6620;53.734;11.510;2023-05-10T06:20:08;99.50;;;94.05;;
13108;SDS011;6620;53.734;11.510;2023-05-10T06:22:33;92.95;;;87.78;;
13108;SDS011;6620;53.734;11.510;2023-05-10T06:24:58;154.17;;;145.83;;
13108;SDS011;6620;53.734;11.510;2023-05-10T06:27:24;84.77;;;80.27;;
13108;SDS011;6620;53.734;11.510;2023-05-10T06:29:49;91.32;;;86.07;;
13108;SDS011;6620;53.734;11.510;2023-05-10T06:32:14;88.97;;;84.22;;
13108;SDS011;6620;53.734;11.510;2023-05-10T06:34:39;141.03;;;133.33;;
13108;SDS011;6620;53.734;11.510;2023-05-10T06:37:05;81.60;;;77.20;;
13108;SDS011;6620;53.734;11.510;2023-05-10T06:39:30;119.17;;;112.67;;
13108;SDS011;6620;53.734;11.510;2023-05-10T06:41:55;144.23;;;135.93;;
13108;SDS011;6620;53.734;11.510;2023-05-10T06:44:20;83.83;;;79.30;;
13108;SDS011;6620;53.734;11.510;2023-05-10T06:46:46;110.93;;;104.68;;
13108;SDS011;6620;53.734;11.510;2023-05-10T06:49:11;129.32;;;122.35;;
13108;SDS011;6620;53.734;11.510;2023-05-10T06:51:36;98.55;;;93.05;;
13108;SDS011;6620;53.734;11.510;2023-05-10T06:54:02;148.43;;;139.97;;
13108;SDS011;6620;53.734;11.510;2023-05-10T06:56:28;118.75;;;112.40;;
13108;SDS011;6620;53.734;11.510;2023-05-10T06:58:53;139.13;;;130.80;;
13108;SDS011;6620;53.734;11.510;2023-05-10T07:01:18;129.73;;;122.57;;
13108;SDS011;6620;53.734;11.510;2023-05-10T07:03:43;131.53;;;124.53;;
13108;SDS011;6620;53.734;11.510;2023-05-10T07:06:08;132.05;;;124.63;;
13108;SDS011;6620;53.734;11.510;2023-05-10T07:08:33;145.13;;;137.20;;
13108;SDS011;6620;53.734;11.510;2023-05-10T07:11:00;195.32;;;183.93;;
13108;SDS011;6620;53.734;11.510;2023-05-10T07:13:25;156.05;;;147.60;;
13108;SDS011;6620;53.734;11.510;2023-05-10T07:15:50;159.98;;;151.25;;
13108;SDS011;6620;53.734;11.510;2023-05-10T07:18:15;211.50;;;200.23;;
13108;SDS011;6620;53.734;11.510;2023-05-10T07:20:41;190.60;;;180.13;;
13108;SDS011;6620;53.734;11.510;2023-05-10T07:23:06;398.50;;;359.73;;
13108;SDS011;6620;53.734;11.510;2023-05-10T07:25:31;153.90;;;145.53;;
13108;SDS011;6620;53.734;11.510;2023-05-10T07:27:56;143.17;;;135.47;;
13108;SDS011;6620;53.734;11.510;2023-05-10T07:30:22;146.13;;;138.13;;
13108;SDS011;6620;53.734;11.510;2023-05-10T07:32:47;281.35;;;258.25;;
13108;SDS011;6620;53.734;11.510;2023-05-10T07:35:12;166.43;;;157.50;;
13108;SDS011;6620;53.734;11.510;2023-05-10T07:37:37;160.40;;;151.60;;
13108;SDS011;6620;53.734;11.510;2023-05-10T07:40:02;220.57;;;207.52;;
13108;SDS011;6620;53.734;11.510;2023-05-10T07:42:28;160.77;;;151.70;;
13108;SDS011;6620;53.734;11.510;2023-05-10T07:44:53;208.00;;;196.83;;
13108;SDS011;6620;53.734;11.510;2023-05-10T07:47:19;160.30;;;151.25;;
13108;SDS011;6620;53.734;11.510;2023-05-10T07:49:44;180.50;;;171.07;;
13108;SDS011;6620;53.734;11.510;2023-05-10T07:52:09;355.30;;;324.15;;
13108;SDS011;6620;53.734;11.510;2023-05-10T07:54:34;184.17;;;174.10;;
13108;SDS011;6620;53.734;11.510;2023-05-10T07:57:00;164.00;;;155.03;;
13108;SDS011;6620;53.734;11.510;2023-05-10T07:59:25;171.15;;;161.80;;
13108;SDS011;6620;53.734;11.510;2023-05-10T08:01:50;209.93;;;198.63;;
13108;SDS011;6620;53.734;11.510;2023-05-10T08:04:15;209.17;;;198.03;;
13108;SDS011;6620;53.734;11.510;2023-05-10T08:06:41;228.05;;;215.63;;
13108;SDS011;6620;53.734;11.510;2023-05-10T08:09:06;268.20;;;252.65;;
13108;SDS011;6620;53.734;11.510;2023-05-10T08:11:31;204.10;;;193.00;;
13108;SDS011;6620;53.734;11.510;2023-05-10T08:13:56;205.27;;;194.10;;
13108;SDS011;6620;53.734;11.510;2023-05-10T08:16:21;155.17;;;146.77;;
13108;SDS011;6620;53.734;11.510;2023-05-10T08:18:46;192.07;;;181.83;;
13108;SDS011;6620;53.734;11.510;2023-05-10T08:21:12;213.43;;;201.73;;
13108;SDS011;6620;53.734;11.510;2023-05-10T08:23:37;157.35;;;148.98;;
13108;SDS011;6620;53.734;11.510;2023-05-10T08:26:02;312.07;;;293.80;;
13108;SDS011;6620;53.734;11.510;2023-05-10T08:28:27;376.80;;;350.92;;
13108;SDS011;6620;53.734;11.510;2023-05-10T08:30:53;251.15;;;237.02;;
13108;SDS011;6620;53.734;11.510;2023-05-10T08:33:18;297.67;;;281.13;;
13108;SDS011;6620;53.734;11.510;2023-05-10T08:35:43;226.00;;;213.90;;
13108;SDS011;6620;53.734;11.510;2023-05-10T08:38:08;236.47;;;223.50;;
13108;SDS011;6620;53.734;11.510;2023-05-10T08:40:34;302.30;;;285.03;;
13108;SDS011;6620;53.734;11.510;2023-05-10T08:43:04;257.33;;;243.50;;
13108;SDS011;6620;53.734;11.510;2023-05-10T08:45:31;223.98;;;211.43;;
13108;SDS011;6620;53.734;11.510;2023-05-10T08:47:56;247.00;;;232.90;;
13108;SDS011;6620;53.734;11.510;2023-05-10T08:50:22;281.70;;;265.85;;
13108;SDS011;6620;53.734;11.510;2023-05-10T08:52:48;269.08;;;254.27;;
13108;SDS011;6620;53.734;11.510;2023-05-10T08:55:15;305.08;;;287.75;;
13108;SDS011;6620;53.734;11.510;2023-05-10T08:57:41;304.98;;;287.88;;
13108;SDS011;6620;53.734;11.510;2023-05-10T09:00:06;303.73;;;286.80;;
13108;SDS011;6620;53.734;11.510;2023-05-10T09:02:33;246.77;;;233.02;;
13108;SDS011;6620;53.734;11.510;2023-05-10T09:04:58;268.40;;;253.88;;
13108;SDS011;6620;53.734;11.510;2023-05-10T09:07:23;286.53;;;270.07;;
13108;SDS011;6620;53.734;11.510;2023-05-10T09:09:48;331.45;;;310.60;;
13108;SDS011;6620;53.734;11.510;2023-05-10T09:12:14;208.52;;;197.57;;
13108;SDS011;6620;53.734;11.510;2023-05-10T09:14:40;327.50;;;308.60;;
13108;SDS011;6620;53.734;11.510;2023-05-10T09:17:06;276.20;;;260.60;;
13108;SDS011;6620;53.734;11.510;2023-05-10T09:19:31;289.63;;;273.60;;
13108;SDS011;6620;53.734;11.510;2023-05-10T09:21:56;206.17;;;195.37;;
13108;SDS011;6620;53.734;11.510;2023-05-10T09:24:25;287.53;;;271.53;;
13108;SDS011;6620;53.734;11.510;2023-05-10T09:26:50;315.63;;;297.92;;
13108;SDS011;6620;53.734;11.510;2023-05-10T09:29:16;330.92;;;311.92;;
13108;SDS011;6620;53.734;11.510;2023-05-10T09:31:45;296.10;;;279.65;;
13108;SDS011;6620;53.734;11.510;2023-05-10T09:34:14;325.92;;;307.90;;
13108;SDS011;6620;53.734;11.510;2023-05-10T09:36:53;358.77;;;338.25;;
13108;SDS011;6620;53.734;11.510;2023-05-10T09:39:18;338.98;;;319.55;;
13108;SDS011;6620;53.734;11.510;2023-05-10T09:41:44;357.80;;;337.75;;
13108;SDS011;6620;53.734;11.510;2023-05-10T09:44:09;387.53;;;365.07;;
13108;SDS011;6620;53.734;11.510;2023-05-10T09:46:34;317.17;;;299.57;;
13108;SDS011;6620;53.734;11.510;2023-05-10T09:49:00;280.48;;;264.90;;
13108;SDS011;6620;53.734;11.510;2023-05-10T09:51:25;289.17;;;272.77;;
13108;SDS011;6620;53.734;11.510;2023-05-10T09:56:36;344.20;;;324.88;;
13108;SDS011;6620;53.734;11.510;2023-05-10T09:59:02;312.45;;;294.50;;
13108;SDS011;6620;53.734;11.510;2023-05-10T10:01:28;365.38;;;344.52;;
13108;SDS011;6620;53.734;11.510;2023-05-10T10:03:53;325.15;;;306.77;;
13108;SDS011;6620;53.734;11.510;2023-05-10T10:06:19;356.33;;;336.30;;
13108;SDS011;6620;53.734;11.510;2023-05-10T10:08:44;369.58;;;348.13;;
13108;SDS011;6620;53.734;11.510;2023-05-10T10:11:09;304.02;;;287.20;;
13108;SDS011;6620;53.734;11.510;2023-05-10T10:13:34;361.87;;;341.37;;
13108;SDS011;6620;53.734;11.510;2023-05-10T10:16:00;344.47;;;324.90;;
13108;SDS011;6620;53.734;11.510;2023-05-10T10:18:25;330.33;;;311.98;;
13108;SDS011;6620;53.734;11.510;2023-05-10T10:20:52;374.70;;;353.15;;
13108;SDS011;6620;53.734;11.510;2023-05-10T10:23:18;362.50;;;341.02;;
13108;SDS011;6620;53.734;11.510;2023-05-10T10:25:44;386.00;;;364.13;;
13108;SDS011;6620;53.734;11.510;2023-05-10T10:28:19;370.13;;;348.63;;
13108;SDS011;6620;53.734;11.510;2023-05-10T10:30:48;387.25;;;363.55;;
13108;SDS011;6620;53.734;11.510;2023-05-10T10:35:58;411.95;;;385.70;;
13108;SDS011;6620;53.734;11.510;2023-05-10T10:38:25;297.63;;;281.35;;
13108;SDS011;6620;53.734;11.510;2023-05-10T10:41:03;392.00;;;369.48;;
13108;SDS011;6620;53.734;11.510;2023-05-10T10:43:32;233.60;;;221.18;;
13108;SDS011;6620;53.734;11.510;2023-05-10T10:46:10;231.87;;;219.23;;
13108;SDS011;6620;53.734;11.510;2023-05-10T10:48:40;385.35;;;362.55;;
13108;SDS011;6620;53.734;11.510;2023-05-10T10:51:05;433.10;;;404.73;;
13108;SDS011;6620;53.734;11.510;2023-05-10T10:53:30;371.98;;;350.33;;
13108;SDS011;6620;53.734;11.510;2023-05-10T10:56:09;341.55;;;322.05;;
13108;SDS011;6620;53.734;11.510;2023-05-10T10:58:35;439.63;;;413.77;;
13108;SDS011;6620;53.734;11.510;2023-05-10T11:03:35;372.75;;;351.15;;
13108;SDS011;6620;53.734;11.510;2023-05-10T11:06:00;313.77;;;295.83;;
13108;SDS011;6620;53.734;11.510;2023-05-10T11:08:27;381.80;;;359.35;;
13108;SDS011;6620;53.734;11.510;2023-05-10T11:13:26;434.63;;;409.33;;
13108;SDS011;6620;53.734;11.510;2023-05-10T11:15:52;404.38;;;380.88;;
13108;SDS011;6620;53.734;11.510;2023-05-10T11:18:19;405.88;;;381.45;;
13108;SDS011;6620;53.734;11.510;2023-05-10T11:20:44;393.98;;;370.52;;
13108;SDS011;6620;53.734;11.510;2023-05-10T11:23:14;227.18;;;215.23;;
13108;SDS011;6620;53.734;11.510;2023-05-10T11:25:44;396.83;;;373.38;;
13108;SDS011;6620;53.734;11.510;2023-05-10T11:28:10;319.67;;;301.42;;
13108;SDS011;6620;53.734;11.510;2023-05-10T11:30:36;421.23;;;396.02;;
13108;SDS011;6620;53.734;11.510;2023-05-10T11:33:01;354.73;;;334.27;;
13108;SDS011;6620;53.734;11.510;2023-05-10T11:35:27;400.47;;;377.30;;
13108;SDS011;6620;53.734;11.510;2023-05-10T11:37:52;431.55;;;405.23;;
13108;SDS011;6620;53.734;11.510;2023-05-10T11:40:17;415.17;;;390.03;;
13108;SDS011;6620;53.734;11.510;2023-05-10T11:42:43;349.33;;;329.48;;
13108;SDS011;6620;53.734;11.510;2023-05-10T11:45:09;327.65;;;309.42;;
13108;SDS011;6620;53.734;11.510;2023-05-10T11:47:35;353.90;;;334.05;;
13108;SDS011;6620;53.734;11.510;2023-05-10T11:50:01;357.10;;;336.77;;
13108;SDS011;6620;53.734;11.510;2023-05-10T11:52:27;386.73;;;364.63;;
13108;SDS011;6620;53.734;11.510;2023-05-10T11:54:55;342.70;;;322.67;;
13108;SDS011;6620;53.734;11.510;2023-05-10T11:57:20;390.08;;;367.23;;
13108;SDS011;6620;53.734;11.510;2023-05-10T11:59:46;429.38;;;403.83;;
13108;SDS011;6620;53.734;11.510;2023-05-10T12:02:12;391.55;;;368.17;;
13108;SDS011;6620;53.734;11.510;2023-05-10T12:04:38;362.40;;;341.40;;
13108;SDS011;6620;53.734;11.510;2023-05-10T12:07:03;277.20;;;262.13;;
13108;SDS011;6620;53.734;11.510;2023-05-10T12:09:28;440.23;;;413.67;;
13108;SDS011;6620;53.734;11.510;2023-05-10T12:11:55;423.63;;;398.25;;
13108;SDS011;6620;53.734;11.510;2023-05-10T12:14:21;485.83;;;456.30;;
13108;SDS011;6620;53.734;11.510;2023-05-10T12:16:47;337.83;;;318.35;;
13108;SDS011;6620;53.734;11.510;2023-05-10T12:19:14;374.98;;;353.13;;
13108;SDS011;6620;53.734;11.510;2023-05-10T12:21:42;417.17;;;392.23;;
13108;SDS011;6620;53.734;11.510;2023-05-10T12:24:08;470.17;;;440.70;;
13108;SDS011;6620;53.734;11.510;2023-05-10T12:26:34;469.98;;;440.40;;
13108;SDS011;6620;53.734;11.510;2023-05-10T12:29:13;580.67;;;543.22;;
13108;SDS011;6620;53.734;11.510;2023-05-10T12:31:58;376.70;;;354.52;;
13108;SDS011;6620;53.734;11.510;2023-05-10T12:34:30;489.85;;;459.05;;
13108;SDS011;6620;53.734;11.510;2023-05-10T12:36:55;502.00;;;469.40;;
13108;SDS011;6620;53.734;11.510;2023-05-10T12:39:21;334.60;;;315.40;;
13108;SDS011;6620;53.734;11.510;2023-05-10T12:41:46;434.60;;;407.42;;
13108;SDS011;6620;53.734;11.510;2023-05-10T12:44:11;297.53;;;281.07;;
13108;SDS011;6620;53.734;11.510;2023-05-10T12:46:37;349.37;;;329.43;;
13108;SDS011;6620;53.734;11.510;2023-05-10T12:49:02;354.63;;;333.23;;
13108;SDS011;6620;53.734;11.510;2023-05-10T12:51:27;475.43;;;445.63;;
13108;SDS011;6620;53.734;11.510;2023-05-10T12:53:52;388.83;;;365.70;;
13108;SDS011;6620;53.734;11.510;2023-05-10T12:56:17;481.85;;;451.55;;
13108;SDS011;6620;53.734;11.510;2023-05-10T12:58:42;509.07;;;475.83;;
13108;SDS011;6620;53.734;11.510;2023-05-10T13:01:12;534.05;;;498.40;;
13108;SDS011;6620;53.734;11.510;2023-05-10T13:03:38;411.45;;;387.30;;
13108;SDS011;6620;53.734;11.510;2023-05-10T13:06:03;326.55;;;308.05;;
13108;SDS011;6620;53.734;11.510;2023-05-10T13:08:28;332.17;;;313.52;;
13108;SDS011;6620;53.734;11.510;2023-05-10T13:10:58;500.90;;;469.00;;
13108;SDS011;6620;53.734;11.510;2023-05-10T13:13:23;539.60;;;503.83;;
13108;SDS011;6620;53.734;11.510;2023-05-10T13:15:48;508.43;;;476.33;;
13108;SDS011;6620;53.734;11.510;2023-05-10T13:18:13;457.77;;;430.10;;
13108;SDS011;6620;53.734;11.510;2023-05-10T13:20:38;303.90;;;286.70;;
13108;SDS011;6620;53.734;11.510;2023-05-10T13:23:04;376.50;;;354.17;;
13108;SDS011;6620;53.734;11.510;2023-05-10T13:25:29;427.63;;;401.80;;
13108;SDS011;6620;53.734;11.510;2023-05-10T13:27:54;281.25;;;265.20;;
13108;SDS011;6620;53.734;11.510;2023-05-10T13:30:20;440.17;;;412.73;;
13108;SDS011;6620;53.734;11.510;2023-05-10T13:32:45;429.52;;;404.27;;
13108;SDS011;6620;53.734;11.510;2023-05-10T13:35:10;342.73;;;323.20;;
13108;SDS011;6620;53.734;11.510;2023-05-10T13:37:35;578.43;;;538.13;;
13108;SDS011;6620;53.734;11.510;2023-05-10T13:40:02;382.05;;;359.67;;
13108;SDS011;6620;53.734;11.510;2023-05-10T13:42:27;354.30;;;333.58;;
13108;SDS011;6620;53.734;11.510;2023-05-10T13:44:53;378.95;;;356.50;;
13108;SDS011;6620;53.734;11.510;2023-05-10T13:47:18;349.77;;;329.30;;
13108;SDS011;6620;53.734;11.510;2023-05-10T13:49:43;366.02;;;344.63;;
13108;SDS011;6620;53.734;11.510;2023-05-10T13:52:08;380.90;;;358.40;;
13108;SDS011;6620;53.734;11.510;2023-05-10T13:54:35;459.58;;;430.90;;
13108;SDS011;6620;53.734;11.510;2023-05-10T13:57:00;359.05;;;338.80;;
13108;SDS011;6620;53.734;11.510;2023-05-10T13:59:25;397.87;;;373.73;;
13108;SDS011;6620;53.734;11.510;2023-05-10T14:01:51;290.23;;;273.93;;
13108;SDS011;6620;53.734;11.510;2023-05-10T14:04:16;389.20;;;367.02;;
13108;SDS011;6620;53.734;11.510;2023-05-10T14:06:41;387.75;;;365.13;;
13108;SDS011;6620;53.734;11.510;2023-05-10T14:09:06;356.07;;;335.10;;
13108;SDS011;6620;53.734;11.510;2023-05-10T14:11:32;325.52;;;306.63;;
13108;SDS011;6620;53.734;11.510;2023-05-10T14:13:57;292.50;;;276.23;;
13108;SDS011;6620;53.734;11.510;2023-05-10T14:16:22;322.77;;;304.73;;
13108;SDS011;6620;53.734;11.510;2023-05-10T14:18:47;329.73;;;310.63;;
13108;SDS011;6620;53.734;11.510;2023-05-10T14:21:13;401.73;;;376.50;;
13108;SDS011;6620;53.734;11.510;2023-05-10T14:23:38;274.98;;;260.08;;
13108;SDS011;6620;53.734;11.510;2023-05-10T14:26:03;379.33;;;356.15;;